Time;durP1;ratioP1;P1;durP2;ratioP2;P2;SDS_P1;SDS_P2;PMS_P1;PMS_P2;Temp;Humidity;BMP_temperature;BMP_pressure;BME280_temperature;BME280_humidity;BME280_pressure;Samples;Min_cycle;Max_cycle;Signal;HPM_P1;HPM_P2
2023/06/09 00:00:11;;;;;;;7.80;7.10;;;22.40;71.90;;;;;;5055918;28;20537;-75
2023/06/09 00:02:39;;;;;;;7.30;6.60;;;22.40;72.10;;;;;;5054627;28;20471;-76
2023/06/09 00:05:07;;;;;;;7.97;7.27;;;22.40;72.10;;;;;;5054097;28;20479;-76
2023/06/09 00:07:36;;;;;;;7.67;7.07;;;22.30;72.40;;;;;;5055146;28;20965;-76
2023/06/09 00:10:06;;;;;;;7.50;6.80;;;22.30;72.60;;;;;;5055809;28;20559;-76
2023/06/09 00:12:33;;;;;;;7.47;6.77;;;22.30;72.80;;;;;;5054243;28;20475;-76
2023/06/09 00:15:00;;;;;;;8.20;7.00;;;22.30;73.00;;;;;;5055123;28;21017;-77
2023/06/09 00:17:27;;;;;;;8.77;7.50;;;22.20;73.40;;;;;;5053627;28;20893;-75
2023/06/09 00:20:01;;;;;;;8.20;7.40;;;22.20;73.60;;;;;;5054399;28;20485;-75
2023/06/09 00:22:42;;;;;;;8.50;7.60;;;22.20;73.60;;;;;;5053973;28;20471;-77
2023/06/09 00:25:15;;;;;;;6.87;6.17;;;22.20;74.10;;;;;;5055201;28;20933;-77
2023/06/09 00:27:43;;;;;;;6.83;6.23;;;22.10;74.30;;;;;;5054700;28;20471;-76
2023/06/09 00:30:11;;;;;;;9.00;8.03;;;22.10;74.30;;;;;;5055796;28;20491;-77
2023/06/09 00:32:39;;;;;;;7.43;6.63;;;22.10;74.60;;;;;;5054162;28;20503;-76
2023/06/09 00:35:09;;;;;;;8.77;7.90;;;22.00;74.60;;;;;;5055013;28;20467;-75
2023/06/09 00:37:36;;;;;;;10.10;7.20;;;22.00;74.80;;;;;;5055553;28;20536;-74
2023/06/09 00:40:04;;;;;;;8.90;7.43;;;21.90;75.30;;;;;;5056156;28;20471;-76
2023/06/09 00:42:36;;;;;;;6.77;6.17;;;21.90;75.70;;;;;;5054573;28;20561;-75
2023/06/09 00:45:03;;;;;;;10.10;7.70;;;21.90;75.70;;;;;;5055032;28;21194;-76
2023/06/09 00:47:31;;;;;;;8.17;7.33;;;21.80;75.70;;;;;;5054732;28;20494;-76
2023/06/09 00:49:58;;;;;;;8.77;7.73;;;21.80;76.00;;;;;;5054564;28;20472;-76
2023/06/09 00:52:26;;;;;;;11.30;7.87;;;21.80;76.30;;;;;;5054186;28;20471;-74
2023/06/09 00:54:54;;;;;;;8.90;7.90;;;21.70;76.40;;;;;;5054212;28;20463;-75
2023/06/09 00:57:24;;;;;;;8.00;7.30;;;21.70;76.80;;;;;;5054854;28;20479;-77
2023/06/09 00:59:57;;;;;;;8.33;7.40;;;21.70;76.80;;;;;;5044391;28;20474;-76
2023/06/09 01:02:25;;;;;;;8.40;7.50;;;21.70;76.90;;;;;;5054285;28;20506;-75
2023/06/09 01:04:54;;;;;;;7.90;6.90;;;21.60;77.10;;;;;;5043112;28;20543;-76
2023/06/09 01:07:38;;;;;;;8.20;7.40;;;21.60;77.30;;;;;;5053395;28;20972;-76
2023/06/09 01:10:10;;;;;;;8.77;7.80;;;21.60;77.30;;;;;;5053691;28;20781;-75
2023/06/09 01:12:49;;;;;;;7.70;7.10;;;21.50;77.50;;;;;;5053983;28;20478;-75
2023/06/09 01:15:22;;;;;;;9.40;8.50;;;21.50;77.80;;;;;;5054069;28;20463;-74
2023/06/09 01:17:56;;;;;;;8.53;7.93;;;21.50;77.90;;;;;;5043853;28;20471;-75
2023/06/09 01:20:31;;;;;;;8.80;7.97;;;21.40;78.00;;;;;;5052819;28;20478;-75
2023/06/09 01:23:06;;;;;;;8.67;7.83;;;21.40;78.20;;;;;;5035376;28;20498;-77
2023/06/09 01:25:46;;;;;;;8.40;7.70;;;21.40;78.30;;;;;;5053353;28;20815;-77
2023/06/09 01:28:16;;;;;;;8.47;7.67;;;21.30;78.40;;;;;;5054241;28;20461;-77
2023/06/09 01:30:48;;;;;;;9.00;8.20;;;21.30;78.80;;;;;;5053904;28;20509;-76
2023/06/09 01:33:20;;;;;;;8.73;7.87;;;21.20;79.00;;;;;;5053988;28;20552;-77
2023/06/09 01:35:48;;;;;;;8.73;7.83;;;21.20;79.10;;;;;;5053720;28;20529;-77
2023/06/09 01:38:16;;;;;;;10.73;9.60;;;21.20;79.30;;;;;;5053765;28;21026;-77
2023/06/09 01:40:48;;;;;;;9.50;8.63;;;21.20;79.60;;;;;;5053265;28;20443;-75
2023/06/09 01:43:15;;;;;;;9.27;7.90;;;21.20;79.80;;;;;;5043334;28;20858;-77
2023/06/09 01:45:42;;;;;;;9.17;8.27;;;21.10;80.10;;;;;;5052325;28;20499;-76
2023/06/09 01:48:18;;;;;;;8.27;7.57;;;21.10;80.40;;;;;;5042979;28;20475;-75
2023/06/09 01:50:53;;;;;;;8.00;7.30;;;21.10;80.80;;;;;;5052718;28;20462;-77
2023/06/09 01:53:27;;;;;;;9.20;8.30;;;21.00;80.80;;;;;;5053278;28;20558;-76
2023/06/09 01:55:59;;;;;;;14.20;8.50;;;21.00;81.00;;;;;;5050495;28;20470;-76
2023/06/09 01:58:31;;;;;;;9.00;8.10;;;21.00;81.20;;;;;;5053198;28;20464;-77
2023/06/09 02:01:00;;;;;;;8.83;7.93;;;20.90;81.40;;;;;;5052832;28;20491;-76
2023/06/09 02:03:30;;;;;;;8.73;7.93;;;20.90;81.60;;;;;;5053017;28;20521;-75
2023/06/09 02:06:00;;;;;;;9.87;8.90;;;20.90;81.50;;;;;;5052676;28;20909;-77
2023/06/09 02:08:30;;;;;;;11.63;9.37;;;20.80;81.70;;;;;;5053098;28;21031;-77
2023/06/09 02:10:58;;;;;;;10.63;8.30;;;20.80;81.80;;;;;;5051987;28;20459;-76
2023/06/09 02:13:25;;;;;;;8.70;7.80;;;20.80;81.80;;;;;;5052988;28;20470;-76
2023/06/09 02:16:06;;;;;;;9.43;8.63;;;20.70;82.00;;;;;;5051277;28;20786;-76
2023/06/09 02:24:20;;;;;;;9.37;8.57;;;20.70;82.50;;;;;;5051855;28;20604;-76
2023/06/09 02:26:51;;;;;;;11.03;8.10;;;20.60;82.60;;;;;;5052792;28;20585;-76
2023/06/09 02:29:18;;;;;;;8.77;7.73;;;20.60;82.90;;;;;;5052279;28;20497;-77
2023/06/09 02:31:45;;;;;;;8.53;7.80;;;20.60;83.00;;;;;;5052451;28;20517;-76
2023/06/09 02:34:12;;;;;;;8.80;8.00;;;20.60;83.10;;;;;;5052712;28;20470;-77
2023/06/09 02:36:42;;;;;;;8.90;8.23;;;20.50;83.30;;;;;;5052119;28;20463;-78
2023/06/09 02:39:09;;;;;;;9.73;8.73;;;20.50;83.40;;;;;;5052605;28;20472;-76
2023/06/09 02:41:36;;;;;;;9.40;7.80;;;20.50;83.70;;;;;;5052705;28;20467;-76
2023/06/09 02:44:05;;;;;;;11.87;8.33;;;20.40;83.70;;;;;;5055826;28;20551;-75
2023/06/09 02:46:33;;;;;;;9.30;8.40;;;20.40;84.00;;;;;;5052133;28;20570;-77
2023/06/09 02:49:00;;;;;;;9.63;8.77;;;20.40;84.20;;;;;;5052338;28;20467;-76
2023/06/09 02:51:27;;;;;;;10.13;8.73;;;20.40;84.50;;;;;;5051683;28;20478;-76
2023/06/09 02:53:55;;;;;;;9.37;8.50;;;20.30;84.50;;;;;;5052477;28;20532;-74
2023/06/09 02:56:22;;;;;;;8.60;7.70;;;20.40;84.70;;;;;;5051628;28;20471;-77
2023/06/09 02:58:50;;;;;;;9.33;8.40;;;20.40;84.80;;;;;;5052102;28;20956;-77
2023/06/09 03:01:26;;;;;;;8.97;8.20;;;20.30;85.00;;;;;;5052459;28;20475;-76
2023/06/09 03:03:53;;;;;;;10.53;9.70;;;20.30;85.20;;;;;;5052159;28;20469;-76
2023/06/09 03:06:24;;;;;;;10.13;8.17;;;20.20;85.40;;;;;;5052082;28;20479;-76
2023/06/09 03:08:51;;;;;;;9.67;8.70;;;20.20;85.60;;;;;;5052071;28;20465;-76
2023/06/09 03:11:18;;;;;;;9.50;8.57;;;20.20;85.90;;;;;;5052275;28;20491;-76
2023/06/09 03:13:45;;;;;;;9.83;8.93;;;20.10;86.00;;;;;;5051696;28;20495;-76
2023/06/09 03:16:12;;;;;;;9.10;8.20;;;20.10;86.10;;;;;;5052075;28;20494;-75
2023/06/09 03:18:41;;;;;;;9.73;8.83;;;20.10;86.20;;;;;;5051721;28;20471;-77
2023/06/09 03:21:08;;;;;;;10.23;9.23;;;20.10;86.40;;;;;;5052107;28;20474;-75
2023/06/09 03:23:35;;;;;;;11.90;9.73;;;20.10;86.70;;;;;;5051754;28;20577;-75
2023/06/09 03:26:03;;;;;;;9.03;8.13;;;20.00;87.10;;;;;;5055551;28;20470;-77
2023/06/09 03:28:29;;;;;;;9.00;8.20;;;19.90;87.40;;;;;;5055989;28;20926;-76
2023/06/09 03:30:57;;;;;;;9.90;8.30;;;19.90;87.70;;;;;;5055069;28;20542;-75
2023/06/09 03:33:29;;;;;;;10.10;8.10;;;19.90;88.00;;;;;;5056067;28;20524;-76
2023/06/09 03:35:58;;;;;;;10.00;9.00;;;19.80;88.60;;;;;;5054882;28;20474;-76
2023/06/09 03:38:25;;;;;;;10.27;9.20;;;19.80;89.00;;;;;;5055731;28;20463;-76
2023/06/09 03:40:52;;;;;;;9.80;8.80;;;19.80;89.20;;;;;;5055703;28;20991;-75
2023/06/09 03:43:19;;;;;;;10.27;8.73;;;19.80;89.90;;;;;;5055974;28;20479;-75
2023/06/09 03:45:46;;;;;;;10.53;9.63;;;19.70;90.10;;;;;;5044470;28;20478;-76
2023/06/09 03:48:13;;;;;;;9.87;8.87;;;19.70;90.30;;;;;;5055108;28;20550;-77
2023/06/09 03:50:41;;;;;;;9.40;8.60;;;19.60;90.40;;;;;;5045391;28;20502;-77
2023/06/09 03:53:11;;;;;;;11.10;10.07;;;19.70;90.40;;;;;;5054243;28;20475;-75
2023/06/09 03:55:38;;;;;;;10.80;9.70;;;19.70;90.50;;;;;;5055351;28;20961;-78
2023/06/09 03:58:05;;;;;;;9.63;8.57;;;19.60;90.60;;;;;;5055117;28;20837;-75
2023/06/09 04:00:33;;;;;;;9.43;8.47;;;19.60;90.50;;;;;;5055004;28;20558;-75
2023/06/09 04:03:00;;;;;;;9.00;8.20;;;19.60;90.40;;;;;;5054747;28;20487;-75
2023/06/09 04:05:27;;;;;;;8.97;8.13;;;19.60;90.30;;;;;;5055222;28;20486;-77
2023/06/09 04:07:54;;;;;;;11.30;8.90;;;19.60;90.30;;;;;;5054477;28;20471;-77
2023/06/09 04:10:22;;;;;;;13.60;8.90;;;19.60;90.10;;;;;;5055188;28;20489;-77
2023/06/09 04:12:57;;;;;;;11.93;8.30;;;19.50;89.50;;;;;;5054297;28;20479;-74
2023/06/09 04:15:24;;;;;;;8.33;7.47;;;19.60;89.70;;;;;;5054847;28;20466;-74
2023/06/09 04:17:51;;;;;;;9.17;8.40;;;19.60;89.50;;;;;;5054336;28;20805;-76
2023/06/09 04:20:22;;;;;;;10.40;8.53;;;19.60;88.90;;;;;;5054599;28;20463;-74
2023/06/09 04:22:50;;;;;;;10.23;9.33;;;19.60;88.50;;;;;;5044310;28;20470;-75
2023/06/09 04:25:19;;;;;;;7.27;6.57;;;19.70;87.70;;;;;;5053548;28;20965;-77
2023/06/09 04:27:48;;;;;;;8.60;7.43;;;19.70;87.40;;;;;;5054894;28;20861;-76
2023/06/09 04:30:25;;;;;;;10.43;8.73;;;19.80;86.90;;;;;;5054448;28;20461;-76
2023/06/09 04:32:53;;;;;;;11.30;8.90;;;19.80;85.90;;;;;;5054578;28;20542;-76
2023/06/09 04:35:21;;;;;;;8.50;7.73;;;19.80;85.60;;;;;;5054498;28;20463;-75
2023/06/09 04:37:50;;;;;;;8.30;6.97;;;19.80;85.30;;;;;;5037014;28;20502;-77
2023/06/09 04:40:23;;;;;;;8.60;7.20;;;19.80;85.00;;;;;;5054995;28;20943;-77
2023/06/09 04:42:53;;;;;;;9.40;7.47;;;19.80;84.40;;;;;;5054443;28;20562;-75
2023/06/09 04:45:27;;;;;;;7.63;6.93;;;19.90;83.30;;;;;;5053888;28;20464;-76
2023/06/09 04:47:57;;;;;;;8.27;7.47;;;19.90;83.00;;;;;;5052959;28;20471;-74
2023/06/09 04:50:24;;;;;;;7.50;6.77;;;19.90;81.30;;;;;;5051400;28;20499;-74
2023/06/09 04:52:51;;;;;;;8.83;7.07;;;20.00;81.20;;;;;;5054412;28;20542;-78
2023/06/09 04:55:25;;;;;;;7.60;6.23;;;20.00;80.90;;;;;;5053500;28;20483;-78
2023/06/09 04:57:55;;;;;;;8.67;6.23;;;20.10;79.20;;;;;;5054775;28;20475;-76
2023/06/09 05:00:23;;;;;;;7.33;6.63;;;20.20;78.40;;;;;;5052331;28;20460;-76
2023/06/09 05:02:53;;;;;;;6.80;6.10;;;20.20;77.40;;;;;;5054341;28;20467;-76
2023/06/09 05:05:20;;;;;;;6.00;5.43;;;20.30;75.70;;;;;;5053385;28;20479;-76
2023/06/09 05:07:47;;;;;;;7.73;6.40;;;20.40;74.10;;;;;;5053963;28;20482;-77
2023/06/09 05:10:14;;;;;;;6.93;5.60;;;20.50;73.00;;;;;;5053312;28;20977;-77
2023/06/09 05:12:41;;;;;;;6.90;5.60;;;20.60;71.40;;;;;;5053688;28;20489;-77
2023/06/09 05:15:15;;;;;;;5.73;5.10;;;20.60;69.40;;;;;;5053181;28;20482;-77
2023/06/09 05:17:44;;;;;;;8.03;5.70;;;20.70;67.70;;;;;;5053538;28;20552;-77
2023/06/09 05:20:13;;;;;;;6.60;4.97;;;20.80;65.40;;;;;;5052983;28;20478;-75
2023/06/09 05:22:40;;;;;;;4.10;3.70;;;20.90;64.90;;;;;;5053448;28;20498;-76
2023/06/09 05:25:21;;;;;;;5.30;4.90;;;21.00;64.30;;;;;;5043495;28;20509;-76
2023/06/09 05:27:48;;;;;;;4.40;4.00;;;21.10;63.20;;;;;;5051882;28;20554;-76
2023/06/09 05:30:16;;;;;;;6.13;5.53;;;21.10;62.00;;;;;;5053253;28;20475;-76
2023/06/09 05:32:43;;;;;;;3.87;3.57;;;21.20;61.60;;;;;;5053610;28;20805;-76
2023/06/09 05:35:10;;;;;;;6.47;5.33;;;21.30;60.90;;;;;;5052947;28;20463;-77
2023/06/09 05:37:41;;;;;;;5.07;4.67;;;21.40;60.50;;;;;;5053405;28;20468;-77
2023/06/09 05:40:11;;;;;;;7.10;4.50;;;21.50;60.20;;;;;;5053000;28;20925;-76
2023/06/09 05:42:44;;;;;;;5.07;4.37;;;21.60;60.40;;;;;;5053488;28;21020;-77
2023/06/09 05:45:11;;;;;;;6.10;4.67;;;21.60;60.00;;;;;;5052840;28;20467;-77
2023/06/09 05:47:41;;;;;;;5.13;4.57;;;21.70;59.80;;;;;;5052852;28;20463;-77
2023/06/09 05:50:17;;;;;;;5.27;4.77;;;21.80;59.10;;;;;;5052113;28;20937;-78
2023/06/09 05:52:44;;;;;;;4.70;3.70;;;21.90;58.80;;;;;;5053133;28;20471;-77
2023/06/09 05:55:11;;;;;;;5.87;4.70;;;22.00;58.00;;;;;;5052386;28;20475;-77
2023/06/09 05:57:40;;;;;;;4.10;3.70;;;22.10;58.20;;;;;;5052996;28;20605;-76
2023/06/09 06:00:09;;;;;;;5.13;4.60;;;22.20;57.50;;;;;;5052439;28;20499;-76
2023/06/09 06:02:39;;;;;;;6.17;4.70;;;22.30;57.40;;;;;;5053509;28;20547;-76
2023/06/09 06:05:10;;;;;;;4.73;4.23;;;22.50;57.00;;;;;;5052632;28;20495;-77
2023/06/09 06:07:38;;;;;;;4.67;4.27;;;22.60;56.80;;;;;;5052704;28;20544;-76
2023/06/09 06:10:05;;;;;;;5.93;4.17;;;22.70;56.60;;;;;;5052373;28;20479;-77
2023/06/09 06:12:32;;;;;;;4.60;4.20;;;22.90;56.20;;;;;;5052432;28;20941;-76
2023/06/09 06:14:59;;;;;;;5.80;4.23;;;23.00;55.70;;;;;;5052086;28;20469;-76
2023/06/09 06:17:28;;;;;;;4.83;4.20;;;23.10;55.40;;;;;;5042268;28;20550;-76
2023/06/09 06:19:56;;;;;;;4.37;4.07;;;23.10;55.10;;;;;;5053356;28;20467;-76
2023/06/09 06:22:25;;;;;;;5.60;5.07;;;23.30;55.10;;;;;;5054236;28;20546;-77
2023/06/09 06:24:54;;;;;;;7.03;4.60;;;23.30;54.50;;;;;;5053615;28;20478;-78
2023/06/09 06:27:22;;;;;;;4.70;4.30;;;23.40;54.20;;;;;;5052799;28;20486;-77
2023/06/09 06:29:52;;;;;;;5.30;4.70;;;23.40;53.90;;;;;;5054035;28;20459;-77
2023/06/09 06:32:25;;;;;;;5.33;4.70;;;23.40;54.20;;;;;;5052888;28;20525;-77
2023/06/09 06:34:52;;;;;;;5.13;4.63;;;23.40;54.20;;;;;;5053274;28;20494;-78
2023/06/09 06:37:19;;;;;;;5.93;4.90;;;23.40;54.30;;;;;;5053537;28;20491;-77
2023/06/09 06:39:47;;;;;;;6.30;4.57;;;23.50;54.20;;;;;;5053408;28;20481;-76
2023/06/09 06:42:14;;;;;;;5.00;4.60;;;23.60;54.50;;;;;;5052619;28;20473;-75
2023/06/09 06:44:41;;;;;;;4.40;4.10;;;23.80;54.60;;;;;;5053151;28;20475;-74
2023/06/09 06:47:09;;;;;;;5.57;4.70;;;23.90;54.60;;;;;;5053110;28;20479;-77
2023/06/09 06:49:36;;;;;;;4.63;4.20;;;24.00;54.70;;;;;;5053582;28;20777;-77
2023/06/09 06:52:05;;;;;;;5.50;5.00;;;24.10;54.80;;;;;;5052633;28;20467;-77
2023/06/09 06:54:32;;;;;;;6.00;5.00;;;24.20;54.60;;;;;;5052935;28;20805;-75
2023/06/09 06:57:01;;;;;;;6.83;4.83;;;24.30;54.10;;;;;;5053504;28;20478;-75
2023/06/09 06:59:28;;;;;;;5.93;5.33;;;24.50;53.90;;;;;;5055753;28;20455;-76
2023/06/09 07:01:57;;;;;;;5.27;4.77;;;24.60;53.60;;;;;;5057396;28;20482;-76
2023/06/09 07:04:24;;;;;;;5.43;4.60;;;24.80;53.70;;;;;;5056409;28;20779;-78
2023/06/09 07:06:51;;;;;;;5.00;4.50;;;25.00;53.00;;;;;;5057321;28;20478;-75
2023/06/09 07:09:19;;;;;;;5.80;4.30;;;25.10;51.10;;;;;;5055886;28;20471;-75
2023/06/09 07:11:46;;;;;;;10.20;4.80;;;25.30;51.30;;;;;;5046250;28;20972;-75
2023/06/09 07:14:14;;;;;;;9.57;5.63;;;25.50;51.50;;;;;;5056472;28;20481;-77
2023/06/09 07:16:41;;;;;;;4.77;3.80;;;25.60;51.00;;;;;;5056446;28;20930;-77
2023/06/09 07:19:09;;;;;;;5.20;4.80;;;25.60;50.40;;;;;;5056906;28;20516;-76
2023/06/09 07:21:39;;;;;;;5.27;4.30;;;25.90;50.60;;;;;;5057067;28;20479;-76
2023/06/09 07:24:06;;;;;;;7.97;4.40;;;26.00;50.70;;;;;;5054609;28;20540;-77
2023/06/09 07:26:35;;;;;;;6.10;4.40;;;26.10;50.70;;;;;;5055511;28;20471;-77
2023/06/09 07:29:02;;;;;;;4.87;4.37;;;26.10;50.90;;;;;;5055643;28;20472;-78
2023/06/09 07:31:32;;;;;;;6.33;4.13;;;26.00;50.90;;;;;;5056445;28;20568;-76
2023/06/09 07:34:02;;;;;;;4.37;4.00;;;26.10;51.30;;;;;;5055577;28;20952;-77
2023/06/09 07:36:34;;;;;;;4.27;3.87;;;26.00;51.20;;;;;;5055903;28;20584;-76
2023/06/09 07:39:04;;;;;;;5.07;4.50;;;26.10;51.10;;;;;;5046662;28;20475;-75
2023/06/09 07:41:36;;;;;;;4.60;4.20;;;26.20;51.40;;;;;;5055724;28;20486;-75
2023/06/09 07:44:03;;;;;;;3.87;3.57;;;26.40;51.30;;;;;;5053954;28;20464;-76
2023/06/09 07:46:32;;;;;;;4.30;3.83;;;26.50;50.40;;;;;;5054945;28;20487;-75
2023/06/09 07:48:59;;;;;;;7.13;4.97;;;26.70;50.50;;;;;;5055080;28;20478;-77
2023/06/09 07:51:28;;;;;;;4.90;4.27;;;26.90;50.30;;;;;;5055226;28;20460;-75
2023/06/09 07:53:57;;;;;;;6.17;4.90;;;26.90;50.00;;;;;;5055005;28;20981;-75
2023/06/09 07:56:24;;;;;;;6.17;4.50;;;26.90;49.90;;;;;;5046626;28;20485;-75
2023/06/09 07:58:52;;;;;;;4.30;3.90;;;26.90;50.00;;;;;;5054907;28;20475;-75
2023/06/09 08:01:22;;;;;;;5.00;4.60;;;26.90;49.90;;;;;;5051842;28;20965;-76
2023/06/09 08:03:51;;;;;;;6.03;4.87;;;26.80;50.10;;;;;;5055495;28;20522;-76
2023/06/09 08:06:21;;;;;;;7.03;4.77;;;26.80;50.60;;;;;;5054525;28;20484;-77
2023/06/09 08:08:49;;;;;;;5.47;4.90;;;26.70;50.60;;;;;;5055158;28;20989;-76
2023/06/09 08:11:17;;;;;;;6.60;4.70;;;26.60;50.80;;;;;;5053619;28;20868;-75
2023/06/09 08:13:45;;;;;;;6.67;4.50;;;26.60;51.10;;;;;;5057199;28;20465;-75
2023/06/09 08:16:13;;;;;;;4.93;4.40;;;26.50;51.30;;;;;;5054023;28;20567;-76
2023/06/09 08:18:40;;;;;;;4.83;4.33;;;26.50;51.40;;;;;;5044998;28;20856;-74
2023/06/09 08:21:08;;;;;;;6.67;4.60;;;26.40;51.60;;;;;;5054995;28;20546;-74
2023/06/09 08:23:37;;;;;;;6.60;4.73;;;26.40;51.90;;;;;;5056089;28;20466;-77
2023/06/09 08:26:04;;;;;;;7.40;4.33;;;26.30;50.00;;;;;;5055517;28;20472;-76
2023/06/09 08:28:32;;;;;;;5.07;4.30;;;26.20;49.30;;;;;;5054899;28;20475;-75
2023/06/09 08:30:59;;;;;;;8.70;4.30;;;26.20;49.50;;;;;;5055910;28;20478;-76
2023/06/09 08:33:28;;;;;;;4.00;3.63;;;26.20;49.80;;;;;;5054790;28;20536;-76
2023/06/09 08:35:57;;;;;;;7.97;4.10;;;26.10;50.20;;;;;;5054971;28;20517;-77
2023/06/09 08:38:26;;;;;;;5.47;4.03;;;26.10;50.30;;;;;;5054753;28;20475;-77
2023/06/09 08:40:58;;;;;;;7.77;3.80;;;26.10;50.60;;;;;;5055240;28;20566;-77
2023/06/09 08:43:26;;;;;;;4.90;4.50;;;26.10;50.60;;;;;;5053851;28;20521;-75
2023/06/09 08:45:58;;;;;;;4.87;4.20;;;26.10;50.80;;;;;;5056099;28;20546;-77
2023/06/09 08:48:29;;;;;;;4.80;3.97;;;26.20;50.60;;;;;;5052669;28;20788;-75
2023/06/09 08:50:57;;;;;;;5.00;4.60;;;26.20;50.30;;;;;;5054466;28;20491;-75
2023/06/09 08:53:26;;;;;;;5.10;4.60;;;26.30;50.50;;;;;;5053701;28;20475;-77
2023/06/09 08:55:53;;;;;;;5.40;4.47;;;26.40;50.70;;;;;;5054095;28;20465;-75
2023/06/09 08:58:25;;;;;;;5.03;4.00;;;26.50;50.70;;;;;;5054521;28;20731;-75
2023/06/09 09:00:53;;;;;;;5.97;4.53;;;26.50;50.90;;;;;;5055748;28;20937;-74
2023/06/09 09:03:20;;;;;;;4.10;3.80;;;26.60;51.00;;;;;;5056512;28;20996;-77
2023/06/09 09:05:49;;;;;;;6.30;4.67;;;26.70;51.20;;;;;;5057304;28;20463;-75
2023/06/09 09:08:18;;;;;;;7.63;4.03;;;26.80;51.10;;;;;;5057206;28;20468;-75
2023/06/09 09:10:46;;;;;;;4.50;3.70;;;26.90;51.10;;;;;;5045715;28;20479;-76
2023/06/09 09:13:14;;;;;;;7.50;4.80;;;26.90;51.10;;;;;;5054033;28;20949;-77
2023/06/09 09:15:48;;;;;;;5.00;4.50;;;27.00;51.10;;;;;;5053799;28;20481;-76
2023/06/09 09:18:17;;;;;;;6.83;4.60;;;27.00;51.00;;;;;;5053838;28;20508;-76
2023/06/09 09:20:44;;;;;;;6.10;4.63;;;27.10;51.20;;;;;;5052512;28;20491;-76
2023/06/09 09:23:11;;;;;;;5.97;4.10;;;27.00;51.10;;;;;;5055713;28;20471;-75
2023/06/09 09:25:39;;;;;;;5.13;4.03;;;27.10;50.90;;;;;;5054103;28;20472;-76
2023/06/09 09:28:11;;;;;;;7.23;4.30;;;27.10;51.00;;;;;;5053498;28;20597;-76
2023/06/09 09:30:51;;;;;;;4.90;4.50;;;27.10;51.20;;;;;;5053207;28;20518;-76
2023/06/09 09:33:20;;;;;;;5.43;4.90;;;27.10;51.30;;;;;;5053488;28;20529;-77
2023/06/09 09:35:49;;;;;;;6.70;4.70;;;27.30;51.70;;;;;;5052919;28;20837;-76
2023/06/09 09:38:18;;;;;;;5.80;4.87;;;27.30;51.80;;;;;;5053766;28;20484;-78
2023/06/09 09:40:46;;;;;;;6.03;4.90;;;27.40;51.50;;;;;;5051650;28;20476;-76
2023/06/09 09:43:15;;;;;;;4.37;4.07;;;27.40;51.60;;;;;;5052795;28;20856;-76
2023/06/09 09:45:48;;;;;;;4.70;4.10;;;27.40;51.80;;;;;;5052891;28;20475;-77
2023/06/09 09:48:18;;;;;;;5.40;4.90;;;27.50;51.80;;;;;;5044007;28;20592;-77
2023/06/09 09:50:47;;;;;;;5.53;5.03;;;27.60;52.10;;;;;;5053600;28;20474;-78
2023/06/09 09:53:15;;;;;;;9.03;5.53;;;27.70;52.30;;;;;;5053564;28;20501;-77
2023/06/09 09:55:45;;;;;;;4.97;4.47;;;27.70;52.10;;;;;;5052194;28;20569;-77
2023/06/09 09:58:14;;;;;;;4.80;4.43;;;27.80;52.10;;;;;;5053486;28;20493;-78
2023/06/09 10:00:46;;;;;;;5.30;4.87;;;27.80;52.20;;;;;;5052819;28;20503;-78
2023/06/09 10:03:18;;;;;;;5.73;5.00;;;27.90;52.70;;;;;;5053241;28;20475;-77
2023/06/09 10:05:55;;;;;;;5.83;4.80;;;27.90;52.90;;;;;;5053079;28;20967;-76
2023/06/09 10:08:28;;;;;;;5.40;5.00;;;27.90;53.30;;;;;;5055931;28;20482;-75
2023/06/09 10:10:59;;;;;;;5.17;4.77;;;28.00;53.80;;;;;;5052341;28;20514;-74
2023/06/09 10:13:29;;;;;;;5.83;5.30;;;28.00;53.60;;;;;;5053257;28;21026;-75
2023/06/09 10:15:58;;;;;;;5.07;4.67;;;28.00;53.30;;;;;;5052491;28;20549;-74
2023/06/09 10:18:25;;;;;;;5.67;5.27;;;28.00;52.60;;;;;;5052853;28;20767;-76
2023/06/09 10:20:54;;;;;;;9.70;5.80;;;28.10;52.70;;;;;;5052035;28;20478;-77
2023/06/09 10:23:22;;;;;;;5.33;4.80;;;28.10;53.30;;;;;;5053489;28;20474;-75
2023/06/09 10:25:53;;;;;;;9.77;5.67;;;28.10;53.40;;;;;;5052508;28;20474;-76
2023/06/09 10:28:21;;;;;;;5.43;4.93;;;28.10;53.30;;;;;;5052184;28;20508;-75
2023/06/09 10:30:51;;;;;;;7.90;4.87;;;28.10;53.30;;;;;;5043619;28;20478;-77
2023/06/09 10:33:23;;;;;;;5.20;4.70;;;28.00;52.90;;;;;;5054481;28;20507;-77
2023/06/09 10:35:58;;;;;;;5.57;5.03;;;28.10;52.60;;;;;;5056083;28;20478;-76
2023/06/09 10:38:29;;;;;;;4.93;4.50;;;28.20;52.40;;;;;;5056701;28;20469;-78
2023/06/09 10:41:13;;;;;;;5.03;4.63;;;28.20;52.50;;;;;;5056996;28;20607;-76
2023/06/09 10:44:17;;;;;;;4.57;4.17;;;28.30;52.20;;;;;;5056962;28;20524;-76
2023/06/09 10:46:47;;;;;;;4.73;4.33;;;28.40;50.90;;;;;;5056640;28;20470;-78
2023/06/09 10:49:39;;;;;;;4.43;4.13;;;28.50;50.40;;;;;;5057425;28;20463;-77
2023/06/09 10:52:10;;;;;;;4.53;4.23;;;28.50;49.70;;;;;;5056737;28;20756;-76
2023/06/09 10:54:38;;;;;;;5.53;4.20;;;28.50;49.20;;;;;;5057174;28;20463;-76
2023/06/09 10:57:35;;;;;;;3.47;3.27;;;28.40;49.00;;;;;;5056358;28;20478;-76
2023/06/09 11:00:11;;;;;;;4.13;3.83;;;28.30;48.00;;;;;;5056518;28;20499;-77
2023/06/09 11:02:41;;;;;;;4.63;4.23;;;28.30;48.40;;;;;;5056383;28;20451;-75
2023/06/09 11:05:12;;;;;;;5.37;4.77;;;28.30;48.80;;;;;;5056046;28;20463;-76
2023/06/09 11:07:51;;;;;;;4.33;3.93;;;28.40;48.80;;;;;;5056710;28;20583;-77
2023/06/09 11:10:37;;;;;;;5.57;4.23;;;28.40;48.70;;;;;;5055841;28;20475;-76
2023/06/09 11:13:38;;;;;;;4.97;4.57;;;28.50;48.70;;;;;;5055694;28;20545;-76
2023/06/09 11:16:05;;;;;;;5.30;4.00;;;28.50;48.10;;;;;;5056476;28;20521;-77
2023/06/09 11:18:34;;;;;;;5.50;5.00;;;28.50;48.30;;;;;;5057167;28;20804;-77
2023/06/09 11:21:13;;;;;;;7.83;4.33;;;28.60;48.50;;;;;;5056900;28;20485;-77
2023/06/09 11:24:03;;;;;;;4.97;4.47;;;28.60;48.30;;;;;;5057368;28;20463;-76
2023/06/09 11:26:31;;;;;;;5.50;5.10;;;28.60;48.40;;;;;;5055983;28;20542;-76
2023/06/09 11:28:59;;;;;;;5.73;5.30;;;28.60;48.40;;;;;;5056581;28;20463;-78
2023/06/09 11:31:29;;;;;;;5.07;4.67;;;28.70;49.10;;;;;;5055982;28;20869;-76
2023/06/09 11:33:57;;;;;;;5.63;4.77;;;28.70;50.00;;;;;;5055940;28;20462;-75
2023/06/09 11:36:30;;;;;;;6.33;5.33;;;28.70;50.00;;;;;;5056101;28;20483;-75
2023/06/09 11:39:04;;;;;;;5.57;5.07;;;28.70;49.70;;;;;;5055889;28;20458;-77
2023/06/09 11:41:34;;;;;;;5.43;4.93;;;28.70;49.00;;;;;;5056358;28;20489;-78
2023/06/09 11:44:01;;;;;;;5.37;4.83;;;28.70;48.40;;;;;;5054096;28;20767;-76
2023/06/09 11:46:28;;;;;;;5.13;4.63;;;28.70;47.70;;;;;;5055636;28;20991;-76
2023/06/09 11:49:08;;;;;;;7.07;4.17;;;28.70;48.00;;;;;;5055146;28;20558;-76
2023/06/09 11:51:56;;;;;;;4.90;4.50;;;28.80;47.70;;;;;;5055819;28;20471;-76
2023/06/09 11:54:23;;;;;;;4.90;4.50;;;28.70;47.40;;;;;;5055443;28;20459;-78
2023/06/09 11:56:51;;;;;;;4.80;4.30;;;28.70;47.50;;;;;;5055537;28;20970;-77
2023/06/09 11:59:19;;;;;;;5.00;4.60;;;28.70;47.60;;;;;;5045137;28;20573;-78
2023/06/09 12:01:48;;;;;;;4.47;4.17;;;28.70;47.90;;;;;;5054726;28;20981;-78
2023/06/09 12:04:17;;;;;;;6.00;4.70;;;28.80;48.30;;;;;;5046681;28;20485;-78
2023/06/09 12:06:48;;;;;;;5.37;4.90;;;28.90;48.50;;;;;;5054549;28;20805;-76
2023/06/09 12:09:22;;;;;;;4.50;4.20;;;28.90;48.50;;;;;;5055494;28;20562;-77
2023/06/09 12:11:51;;;;;;;5.07;4.77;;;29.00;48.30;;;;;;5054185;28;20462;-75
2023/06/09 12:14:19;;;;;;;4.97;4.57;;;29.00;48.30;;;;;;5046588;28;20482;-75
2023/06/09 12:16:46;;;;;;;5.03;4.53;;;29.00;48.10;;;;;;5053807;28;20526;-75
2023/06/09 12:19:13;;;;;;;5.00;4.60;;;29.10;47.60;;;;;;5055340;28;20814;-76
2023/06/09 12:21:41;;;;;;;4.87;4.50;;;29.10;47.50;;;;;;5054776;28;20778;-75
2023/06/09 12:24:08;;;;;;;4.80;4.50;;;29.10;47.20;;;;;;5055440;28;20759;-78
2023/06/09 12:26:41;;;;;;;4.47;4.07;;;29.10;47.40;;;;;;5067120;28;20549;-77
2023/06/09 12:29:08;;;;;;;5.07;4.67;;;29.10;47.40;;;;;;5075087;28;20474;-78
2023/06/09 12:31:35;;;;;;;4.83;4.53;;;29.10;46.70;;;;;;5074272;28;20462;-78
2023/06/09 12:34:02;;;;;;;4.80;4.50;;;29.00;46.40;;;;;;5074441;28;20498;-77
2023/06/09 12:36:29;;;;;;;8.37;5.20;;;29.00;46.30;;;;;;5074131;28;20540;-77
2023/06/09 12:38:57;;;;;;;4.80;4.40;;;29.00;46.20;;;;;;5074673;28;20482;-78
2023/06/09 12:41:24;;;;;;;4.83;4.43;;;29.00;46.20;;;;;;5074272;28;20498;-76
2023/06/09 12:43:54;;;;;;;5.47;4.97;;;29.00;46.50;;;;;;5073592;28;20912;-78
2023/06/09 12:46:27;;;;;;;5.53;4.60;;;29.00;46.30;;;;;;5074139;28;20541;-78
2023/06/09 12:49:01;;;;;;;5.20;4.70;;;29.00;46.40;;;;;;5073575;28;20558;-78
2023/06/09 12:51:28;;;;;;;5.30;4.80;;;29.00;46.10;;;;;;5074768;28;20474;-78
2023/06/09 12:53:57;;;;;;;4.90;4.50;;;29.10;46.10;;;;;;5074366;28;20446;-77
2023/06/09 12:56:25;;;;;;;5.07;4.77;;;29.00;46.10;;;;;;5063854;28;20532;-75
2023/06/09 12:58:53;;;;;;;5.03;4.50;;;29.00;46.00;;;;;;5072944;28;20462;-77
2023/06/09 13:01:20;;;;;;;5.17;4.67;;;29.00;46.20;;;;;;5073957;28;20564;-75
2023/06/09 13:03:48;;;;;;;8.43;5.10;;;29.00;46.40;;;;;;5073469;28;20506;-79